sensor_id;sensor_type;location;lat;lon;timestamp;temperature;humidity
20831;DHT22;10576;53.556;9.868;2024-02-26T00:00:38;4.00;99.90
20831;DHT22;10576;53.556;9.868;2024-02-26T00:03:04;3.70;99.90
20831;DHT22;10576;53.556;9.868;2024-02-26T00:05:29;3.70;99.90
20831;DHT22;10576;53.556;9.868;2024-02-26T00:07:56;4.30;99.90
20831;DHT22;10576;53.556;9.868;2024-02-26T00:10:22;3.70;99.90
20831;DHT22;10576;53.556;9.868;2024-02-26T00:12:47;3.70;99.90
20831;DHT22;10576;53.556;9.868;2024-02-26T00:15:13;4.50;99.90
20831;DHT22;10576;53.556;9.868;2024-02-26T00:17:39;3.60;99.90
20831;DHT22;10576;53.556;9.868;2024-02-26T00:20:05;4.10;99.90
20831;DHT22;10576;53.556;9.868;2024-02-26T00:22:34;3.60;99.90
20831;DHT22;10576;53.556;9.868;2024-02-26T00:24:59;3.60;99.90
20831;DHT22;10576;53.556;9.868;2024-02-26T00:27:25;3.40;99.90
20831;DHT22;10576;53.556;9.868;2024-02-26T00:29:50;3.10;99.90
20831;DHT22;10576;53.556;9.868;2024-02-26T00:32:16;3.50;99.90
20831;DHT22;10576;53.556;9.868;2024-02-26T00:34:41;3.20;99.90
20831;DHT22;10576;53.556;9.868;2024-02-26T00:37:07;3.60;99.90
20831;DHT22;10576;53.556;9.868;2024-02-26T00:39:32;3.30;99.90
20831;DHT22;10576;53.556;9.868;2024-02-26T00:41:58;3.30;99.90
20831;DHT22;10576;53.556;9.868;2024-02-26T00:44:23;3.10;99.90
20831;DHT22;10576;53.556;9.868;2024-02-26T00:46:49;2.80;99.90
20831;DHT22;10576;53.556;9.868;2024-02-26T00:49:14;3.20;99.90
20831;DHT22;10576;53.556;9.868;2024-02-26T00:51:40;3.20;99.90
20831;DHT22;10576;53.556;9.868;2024-02-26T00:54:05;3.10;99.90
20831;DHT22;10576;53.556;9.868;2024-02-26T00:56:31;3.60;99.90
20831;DHT22;10576;53.556;9.868;2024-02-26T00:58:56;3.10;99.90
20831;DHT22;10576;53.556;9.868;2024-02-26T01:01:22;3.30;99.90
20831;DHT22;10576;53.556;9.868;2024-02-26T01:03:47;3.00;99.90
20831;DHT22;10576;53.556;9.868;2024-02-26T01:06:13;2.90;99.90
20831;DHT22;10576;53.556;9.868;2024-02-26T01:08:38;2.70;99.90
20831;DHT22;10576;53.556;9.868;2024-02-26T01:11:04;2.90;99.90
20831;DHT22;10576;53.556;9.868;2024-02-26T01:13:30;2.70;99.90
20831;DHT22;10576;53.556;9.868;2024-02-26T01:15:55;2.90;99.90
20831;DHT22;10576;53.556;9.868;2024-02-26T01:18:20;2.40;99.90
20831;DHT22;10576;53.556;9.868;2024-02-26T01:20:46;3.90;99.90
20831;DHT22;10576;53.556;9.868;2024-02-26T01:23:12;2.80;99.90
20831;DHT22;10576;53.556;9.868;2024-02-26T01:25:38;2.70;99.90
20831;DHT22;10576;53.556;9.868;2024-02-26T01:28:04;2.70;99.90
20831;DHT22;10576;53.556;9.868;2024-02-26T01:30:30;2.70;99.90
20831;DHT22;10576;53.556;9.868;2024-02-26T01:32:56;2.70;99.90
20831;DHT22;10576;53.556;9.868;2024-02-26T01:35:21;2.60;99.90
20831;DHT22;10576;53.556;9.868;2024-02-26T01:37:47;2.60;99.90
20831;DHT22;10576;53.556;9.868;2024-02-26T01:40:12;2.80;99.90
20831;DHT22;10576;53.556;9.868;2024-02-26T01:42:44;2.50;99.90
20831;DHT22;10576;53.556;9.868;2024-02-26T01:45:12;2.50;99.90
20831;DHT22;10576;53.556;9.868;2024-02-26T01:47:40;2.50;99.90
20831;DHT22;10576;53.556;9.868;2024-02-26T01:50:06;2.50;99.90
20831;DHT22;10576;53.556;9.868;2024-02-26T01:52:31;2.40;99.90
20831;DHT22;10576;53.556;9.868;2024-02-26T01:54:57;2.40;99.90
20831;DHT22;10576;53.556;9.868;2024-02-26T01:57:23;3.30;99.90
20831;DHT22;10576;53.556;9.868;2024-02-26T01:59:49;2.40;99.90
20831;DHT22;10576;53.556;9.868;2024-02-26T02:02:14;2.30;99.90
20831;DHT22;10576;53.556;9.868;2024-02-26T02:04:40;2.30;99.90
20831;DHT22;10576;53.556;9.868;2024-02-26T02:07:06;2.00;99.90
20831;DHT22;10576;53.556;9.868;2024-02-26T02:09:31;2.30;99.90
20831;DHT22;10576;53.556;9.868;2024-02-26T02:11:57;2.20;99.90
20831;DHT22;10576;53.556;9.868;2024-02-26T02:14:23;2.60;99.90
20831;DHT22;10576;53.556;9.868;2024-02-26T02:16:49;2.40;99.90
20831;DHT22;10576;53.556;9.868;2024-02-26T02:19:14;2.20;99.90
20831;DHT22;10576;53.556;9.868;2024-02-26T02:21:40;2.20;99.90
20831;DHT22;10576;53.556;9.868;2024-02-26T02:24:05;2.10;99.90
20831;DHT22;10576;53.556;9.868;2024-02-26T02:26:31;2.20;99.90
20831;DHT22;10576;53.556;9.868;2024-02-26T02:28:56;1.90;99.90
20831;DHT22;10576;53.556;9.868;2024-02-26T02:31:22;2.20;99.90
20831;DHT22;10576;53.556;9.868;2024-02-26T02:33:48;3.10;99.90
20831;DHT22;10576;53.556;9.868;2024-02-26T02:36:13;2.30;99.90
20831;DHT22;10576;53.556;9.868;2024-02-26T02:38:44;2.10;99.90
20831;DHT22;10576;53.556;9.868;2024-02-26T02:41:14;2.10;99.90
20831;DHT22;10576;53.556;9.868;2024-02-26T02:43:40;2.40;99.90
20831;DHT22;10576;53.556;9.868;2024-02-26T02:46:05;2.00;99.90
20831;DHT22;10576;53.556;9.868;2024-02-26T02:48:31;2.70;99.90
20831;DHT22;10576;53.556;9.868;2024-02-26T02:50:56;1.90;99.90
20831;DHT22;10576;53.556;9.868;2024-02-26T02:53:21;2.00;99.90
20831;DHT22;10576;53.556;9.868;2024-02-26T02:55:47;1.70;99.90
20831;DHT22;10576;53.556;9.868;2024-02-26T02:58:12;1.90;99.90
20831;DHT22;10576;53.556;9.868;2024-02-26T03:00:38;2.10;99.90
20831;DHT22;10576;53.556;9.868;2024-02-26T03:03:04;2.00;99.90
20831;DHT22;10576;53.556;9.868;2024-02-26T03:05:29;2.00;99.90
20831;DHT22;10576;53.556;9.868;2024-02-26T03:07:55;1.90;99.90
20831;DHT22;10576;53.556;9.868;2024-02-26T03:10:20;1.90;99.90
20831;DHT22;10576;53.556;9.868;2024-02-26T03:12:46;1.80;99.90
20831;DHT22;10576;53.556;9.868;2024-02-26T03:15:11;2.20;99.90
20831;DHT22;10576;53.556;9.868;2024-02-26T03:17:37;1.80;99.90
20831;DHT22;10576;53.556;9.868;2024-02-26T03:20:02;2.10;99.90
20831;DHT22;10576;53.556;9.868;2024-02-26T03:22:30;1.80;99.90
20831;DHT22;10576;53.556;9.868;2024-02-26T03:24:56;2.10;99.90
20831;DHT22;10576;53.556;9.868;2024-02-26T03:27:21;1.80;99.90
20831;DHT22;10576;53.556;9.868;2024-02-26T03:29:47;1.80;99.90
20831;DHT22;10576;53.556;9.868;2024-02-26T03:32:13;1.60;99.90
20831;DHT22;10576;53.556;9.868;2024-02-26T03:34:38;1.60;99.90
20831;DHT22;10576;53.556;9.868;2024-02-26T03:37:06;1.80;99.90
20831;DHT22;10576;53.556;9.868;2024-02-26T03:39:34;1.70;99.90
20831;DHT22;10576;53.556;9.868;2024-02-26T03:42:00;1.80;99.90
20831;DHT22;10576;53.556;9.868;2024-02-26T03:44:25;1.30;99.90
20831;DHT22;10576;53.556;9.868;2024-02-26T03:46:51;1.60;99.90
20831;DHT22;10576;53.556;9.868;2024-02-26T03:49:16;1.70;99.90
20831;DHT22;10576;53.556;9.868;2024-02-26T03:51:42;1.70;99.90
20831;DHT22;10576;53.556;9.868;2024-02-26T03:54:07;1.70;99.90
20831;DHT22;10576;53.556;9.868;2024-02-26T03:56:32;1.70;99.90
20831;DHT22;10576;53.556;9.868;2024-02-26T03:58:58;1.60;99.90
20831;DHT22;10576;53.556;9.868;2024-02-26T04:01:25;1.60;99.90
20831;DHT22;10576;53.556;9.868;2024-02-26T04:03:50;1.50;99.90
20831;DHT22;10576;53.556;9.868;2024-02-26T04:06:18;1.60;99.90
20831;DHT22;10576;53.556;9.868;2024-02-26T04:08:46;1.50;99.90
20831;DHT22;10576;53.556;9.868;2024-02-26T04:11:12;1.50;99.90
20831;DHT22;10576;53.556;9.868;2024-02-26T04:13:37;1.50;99.90
20831;DHT22;10576;53.556;9.868;2024-02-26T04:16:06;1.70;99.90
20831;DHT22;10576;53.556;9.868;2024-02-26T04:18:32;1.60;99.90
20831;DHT22;10576;53.556;9.868;2024-02-26T04:20:58;1.50;99.90
20831;DHT22;10576;53.556;9.868;2024-02-26T04:23:23;1.60;99.90
20831;DHT22;10576;53.556;9.868;2024-02-26T04:25:49;2.50;99.90
20831;DHT22;10576;53.556;9.868;2024-02-26T04:28:14;2.60;99.90
20831;DHT22;10576;53.556;9.868;2024-02-26T04:30:40;1.50;99.90
20831;DHT22;10576;53.556;9.868;2024-02-26T04:33:06;1.60;99.90
20831;DHT22;10576;53.556;9.868;2024-02-26T04:35:31;1.70;99.90
20831;DHT22;10576;53.556;9.868;2024-02-26T04:37:57;1.20;99.90
20831;DHT22;10576;53.556;9.868;2024-02-26T04:40:23;1.40;99.90
20831;DHT22;10576;53.556;9.868;2024-02-26T04:42:49;1.60;99.90
20831;DHT22;10576;53.556;9.868;2024-02-26T04:45:14;1.60;99.90
20831;DHT22;10576;53.556;9.868;2024-02-26T04:47:40;1.50;99.90
20831;DHT22;10576;53.556;9.868;2024-02-26T04:50:05;2.50;99.90
20831;DHT22;10576;53.556;9.868;2024-02-26T04:52:31;1.80;99.90
20831;DHT22;10576;53.556;9.868;2024-02-26T04:54:56;1.60;99.90
20831;DHT22;10576;53.556;9.868;2024-02-26T04:57:22;1.60;99.90
20831;DHT22;10576;53.556;9.868;2024-02-26T04:59:47;1.40;99.90
20831;DHT22;10576;53.556;9.868;2024-02-26T05:02:13;1.60;99.90
20831;DHT22;10576;53.556;9.868;2024-02-26T05:04:39;1.60;99.90
20831;DHT22;10576;53.556;9.868;2024-02-26T05:07:04;1.20;99.90
20831;DHT22;10576;53.556;9.868;2024-02-26T05:09:30;1.40;99.90
20831;DHT22;10576;53.556;9.868;2024-02-26T05:11:55;1.60;99.90
20831;DHT22;10576;53.556;9.868;2024-02-26T05:14:21;2.60;99.90
20831;DHT22;10576;53.556;9.868;2024-02-26T05:16:47;1.60;99.90
20831;DHT22;10576;53.556;9.868;2024-02-26T05:19:12;1.50;99.90
20831;DHT22;10576;53.556;9.868;2024-02-26T05:21:37;1.50;99.90
20831;DHT22;10576;53.556;9.868;2024-02-26T05:24:03;1.50;99.90
20831;DHT22;10576;53.556;9.868;2024-02-26T05:26:29;1.50;99.90
20831;DHT22;10576;53.556;9.868;2024-02-26T05:28:54;1.50;99.90
20831;DHT22;10576;53.556;9.868;2024-02-26T05:31:25;1.50;99.90
20831;DHT22;10576;53.556;9.868;2024-02-26T05:33:50;1.50;99.90
20831;DHT22;10576;53.556;9.868;2024-02-26T05:36:19;1.50;99.90
20831;DHT22;10576;53.556;9.868;2024-02-26T05:38:46;1.60;99.90
20831;DHT22;10576;53.556;9.868;2024-02-26T05:41:11;1.60;99.90
20831;DHT22;10576;53.556;9.868;2024-02-26T05:43:37;1.40;99.90
20831;DHT22;10576;53.556;9.868;2024-02-26T05:46:02;1.50;99.90
20831;DHT22;10576;53.556;9.868;2024-02-26T05:48:28;1.60;99.90
20831;DHT22;10576;53.556;9.868;2024-02-26T05:50:53;1.60;99.90
20831;DHT22;10576;53.556;9.868;2024-02-26T05:53:19;1.70;99.90
20831;DHT22;10576;53.556;9.868;2024-02-26T05:55:44;1.70;99.90
20831;DHT22;10576;53.556;9.868;2024-02-26T05:58:10;1.80;99.90
20831;DHT22;10576;53.556;9.868;2024-02-26T06:00:35;1.80;99.90
20831;DHT22;10576;53.556;9.868;2024-02-26T06:03:01;1.80;99.90
20831;DHT22;10576;53.556;9.868;2024-02-26T06:05:27;2.70;99.90
20831;DHT22;10576;53.556;9.868;2024-02-26T06:07:53;1.50;99.90
20831;DHT22;10576;53.556;9.868;2024-02-26T06:10:18;1.90;99.90
20831;DHT22;10576;53.556;9.868;2024-02-26T06:12:46;1.90;99.90
20831;DHT22;10576;53.556;9.868;2024-02-26T06:15:12;1.90;99.90
20831;DHT22;10576;53.556;9.868;2024-02-26T06:17:37;2.00;99.90
20831;DHT22;10576;53.556;9.868;2024-02-26T06:20:03;2.00;99.90
20831;DHT22;10576;53.556;9.868;2024-02-26T06:22:31;2.00;99.90
20831;DHT22;10576;53.556;9.868;2024-02-26T06:24:57;1.90;99.90
20831;DHT22;10576;53.556;9.868;2024-02-26T06:27:22;2.00;99.90
20831;DHT22;10576;53.556;9.868;2024-02-26T06:29:49;2.00;99.90
20831;DHT22;10576;53.556;9.868;2024-02-26T06:32:14;2.10;99.90
20831;DHT22;10576;53.556;9.868;2024-02-26T06:34:40;2.00;99.90
20831;DHT22;10576;53.556;9.868;2024-02-26T06:37:07;1.90;99.90
20831;DHT22;10576;53.556;9.868;2024-02-26T06:39:33;2.90;99.90
20831;DHT22;10576;53.556;9.868;2024-02-26T06:41:59;2.20;99.90
20831;DHT22;10576;53.556;9.868;2024-02-26T06:44:27;2.30;99.90
20831;DHT22;10576;53.556;9.868;2024-02-26T06:46:58;2.10;99.90
20831;DHT22;10576;53.556;9.868;2024-02-26T06:49:24;3.00;99.90
20831;DHT22;10576;53.556;9.868;2024-02-26T06:51:49;2.30;99.90
20831;DHT22;10576;53.556;9.868;2024-02-26T06:54:14;2.20;99.90
20831;DHT22;10576;53.556;9.868;2024-02-26T06:56:40;2.30;99.90
20831;DHT22;10576;53.556;9.868;2024-02-26T06:59:05;2.40;99.90
20831;DHT22;10576;53.556;9.868;2024-02-26T07:01:31;2.40;99.90
20831;DHT22;10576;53.556;9.868;2024-02-26T07:03:56;2.90;99.90
20831;DHT22;10576;53.556;9.868;2024-02-26T07:06:22;2.00;99.90
20831;DHT22;10576;53.556;9.868;2024-02-26T07:08:47;2.30;99.90
20831;DHT22;10576;53.556;9.868;2024-02-26T07:11:13;2.40;99.90
20831;DHT22;10576;53.556;9.868;2024-02-26T07:13:38;2.20;99.90
20831;DHT22;10576;53.556;9.868;2024-02-26T07:16:04;2.40;99.90
20831;DHT22;10576;53.556;9.868;2024-02-26T07:18:29;2.40;99.90
20831;DHT22;10576;53.556;9.868;2024-02-26T07:20:55;2.20;99.90
20831;DHT22;10576;53.556;9.868;2024-02-26T07:23:21;2.50;99.90
20831;DHT22;10576;53.556;9.868;2024-02-26T07:25:46;2.50;99.90
20831;DHT22;10576;53.556;9.868;2024-02-26T07:28:14;2.50;99.90
20831;DHT22;10576;53.556;9.868;2024-02-26T07:30:39;2.90;99.90
20831;DHT22;10576;53.556;9.868;2024-02-26T07:33:05;2.60;99.90
20831;DHT22;10576;53.556;9.868;2024-02-26T07:35:30;2.50;99.90
20831;DHT22;10576;53.556;9.868;2024-02-26T07:37:57;2.20;99.90
20831;DHT22;10576;53.556;9.868;2024-02-26T07:40:23;2.30;99.90
20831;DHT22;10576;53.556;9.868;2024-02-26T07:42:48;2.70;99.90
20831;DHT22;10576;53.556;9.868;2024-02-26T07:45:14;2.50;99.90
20831;DHT22;10576;53.556;9.868;2024-02-26T07:47:40;2.80;99.90
20831;DHT22;10576;53.556;9.868;2024-02-26T07:50:07;3.40;99.90
20831;DHT22;10576;53.556;9.868;2024-02-26T07:52:33;3.00;99.90
20831;DHT22;10576;53.556;9.868;2024-02-26T07:54:58;3.10;99.90
20831;DHT22;10576;53.556;9.868;2024-02-26T07:57:24;2.70;99.90
20831;DHT22;10576;53.556;9.868;2024-02-26T07:59:49;3.50;99.90
20831;DHT22;10576;53.556;9.868;2024-02-26T08:02:15;3.20;99.90
20831;DHT22;10576;53.556;9.868;2024-02-26T08:04:41;3.70;99.90
20831;DHT22;10576;53.556;9.868;2024-02-26T08:07:06;2.90;99.90
20831;DHT22;10576;53.556;9.868;2024-02-26T08:09:32;3.80;99.90
20831;DHT22;10576;53.556;9.868;2024-02-26T08:11:57;3.10;99.90
20831;DHT22;10576;53.556;9.868;2024-02-26T08:14:23;3.70;99.90
20831;DHT22;10576;53.556;9.868;2024-02-26T08:16:48;3.30;99.90
20831;DHT22;10576;53.556;9.868;2024-02-26T08:19:14;3.60;99.90
20831;DHT22;10576;53.556;9.868;2024-02-26T08:21:41;3.30;99.90
20831;DHT22;10576;53.556;9.868;2024-02-26T08:24:06;3.20;99.90
20831;DHT22;10576;53.556;9.868;2024-02-26T08:26:32;3.40;99.90
20831;DHT22;10576;53.556;9.868;2024-02-26T08:28:57;3.20;99.90
20831;DHT22;10576;53.556;9.868;2024-02-26T08:31:23;3.30;99.90
20831;DHT22;10576;53.556;9.868;2024-02-26T08:33:49;3.30;99.90
20831;DHT22;10576;53.556;9.868;2024-02-26T08:36:14;3.20;99.90
20831;DHT22;10576;53.556;9.868;2024-02-26T08:38:40;3.40;99.90
20831;DHT22;10576;53.556;9.868;2024-02-26T08:41:05;3.60;99.90
20831;DHT22;10576;53.556;9.868;2024-02-26T08:43:31;3.20;99.90
20831;DHT22;10576;53.556;9.868;2024-02-26T08:45:57;3.60;99.90
20831;DHT22;10576;53.556;9.868;2024-02-26T08:48:22;3.60;99.90
20831;DHT22;10576;53.556;9.868;2024-02-26T08:50:48;3.70;99.90
20831;DHT22;10576;53.556;9.868;2024-02-26T08:53:13;3.60;99.90
20831;DHT22;10576;53.556;9.868;2024-02-26T08:55:39;3.60;99.90
20831;DHT22;10576;53.556;9.868;2024-02-26T08:58:04;3.50;99.90
20831;DHT22;10576;53.556;9.868;2024-02-26T09:00:30;3.80;99.90
20831;DHT22;10576;53.556;9.868;2024-02-26T09:02:56;3.80;99.90
20831;DHT22;10576;53.556;9.868;2024-02-26T09:05:21;3.90;99.90
20831;DHT22;10576;53.556;9.868;2024-02-26T09:07:47;3.90;99.90
20831;DHT22;10576;53.556;9.868;2024-02-26T09:10:13;3.80;99.90
20831;DHT22;10576;53.556;9.868;2024-02-26T09:12:38;3.90;99.90
20831;DHT22;10576;53.556;9.868;2024-02-26T09:15:05;4.00;99.90
20831;DHT22;10576;53.556;9.868;2024-02-26T09:17:31;4.10;99.90
20831;DHT22;10576;53.556;9.868;2024-02-26T09:19:56;4.20;99.90
20831;DHT22;10576;53.556;9.868;2024-02-26T09:22:22;4.50;99.90
20831;DHT22;10576;53.556;9.868;2024-02-26T09:24:48;4.40;99.90
20831;DHT22;10576;53.556;9.868;2024-02-26T09:27:15;4.70;99.90
20831;DHT22;10576;53.556;9.868;2024-02-26T09:29:42;4.40;99.90
20831;DHT22;10576;53.556;9.868;2024-02-26T09:32:07;4.50;99.90
20831;DHT22;10576;53.556;9.868;2024-02-26T09:34:33;4.50;99.90
20831;DHT22;10576;53.556;9.868;2024-02-26T09:36:59;4.60;99.90
20831;DHT22;10576;53.556;9.868;2024-02-26T09:39:25;4.60;99.90
20831;DHT22;10576;53.556;9.868;2024-02-26T09:41:51;4.70;99.90
20831;DHT22;10576;53.556;9.868;2024-02-26T09:44:18;4.70;99.90
20831;DHT22;10576;53.556;9.868;2024-02-26T09:46:44;4.60;99.90
20831;DHT22;10576;53.556;9.868;2024-02-26T09:49:10;4.80;99.90
20831;DHT22;10576;53.556;9.868;2024-02-26T09:51:37;4.70;99.90
20831;DHT22;10576;53.556;9.868;2024-02-26T09:54:03;4.80;99.90
20831;DHT22;10576;53.556;9.868;2024-02-26T09:56:29;4.90;99.90
20831;DHT22;10576;53.556;9.868;2024-02-26T09:58:55;4.90;99.90
20831;DHT22;10576;53.556;9.868;2024-02-26T10:01:21;4.90;99.90
20831;DHT22;10576;53.556;9.868;2024-02-26T10:03:51;5.00;99.90
20831;DHT22;10576;53.556;9.868;2024-02-26T10:06:17;5.00;99.90
20831;DHT22;10576;53.556;9.868;2024-02-26T10:08:43;5.20;99.90
20831;DHT22;10576;53.556;9.868;2024-02-26T10:11:09;4.90;99.90
20831;DHT22;10576;53.556;9.868;2024-02-26T10:13:35;5.10;99.90
20831;DHT22;10576;53.556;9.868;2024-02-26T10:16:01;5.00;99.90
20831;DHT22;10576;53.556;9.868;2024-02-26T10:21:30;5.10;99.90
20831;DHT22;10576;53.556;9.868;2024-02-26T10:23:55;5.00;99.90
20831;DHT22;10576;53.556;9.868;2024-02-26T10:26:21;5.10;99.90
20831;DHT22;10576;53.556;9.868;2024-02-26T10:28:47;5.10;99.90
20831;DHT22;10576;53.556;9.868;2024-02-26T10:31:13;5.10;99.90
20831;DHT22;10576;53.556;9.868;2024-02-26T10:33:39;5.20;99.90
20831;DHT22;10576;53.556;9.868;2024-02-26T10:36:05;5.40;99.90
20831;DHT22;10576;53.556;9.868;2024-02-26T10:38:34;5.30;99.90
20831;DHT22;10576;53.556;9.868;2024-02-26T10:41:06;5.40;99.90
20831;DHT22;10576;53.556;9.868;2024-02-26T10:43:32;5.40;99.90
20831;DHT22;10576;53.556;9.868;2024-02-26T10:45:57;5.50;99.90
20831;DHT22;10576;53.556;9.868;2024-02-26T10:48:23;5.60;99.90
20831;DHT22;10576;53.556;9.868;2024-02-26T10:50:49;5.70;99.90
20831;DHT22;10576;53.556;9.868;2024-02-26T10:53:26;5.80;99.90
20831;DHT22;10576;53.556;9.868;2024-02-26T10:56:03;5.90;99.90
20831;DHT22;10576;53.556;9.868;2024-02-26T10:58:30;5.90;99.90
20831;DHT22;10576;53.556;9.868;2024-02-26T11:00:56;5.90;99.90
20831;DHT22;10576;53.556;9.868;2024-02-26T11:03:22;5.90;99.90
20831;DHT22;10576;53.556;9.868;2024-02-26T11:05:48;6.00;99.90
20831;DHT22;10576;53.556;9.868;2024-02-26T11:08:14;6.20;99.90
20831;DHT22;10576;53.556;9.868;2024-02-26T11:10:40;6.50;99.90
20831;DHT22;10576;53.556;9.868;2024-02-26T11:13:06;6.40;99.90
20831;DHT22;10576;53.556;9.868;2024-02-26T11:15:34;6.60;99.90
20831;DHT22;10576;53.556;9.868;2024-02-26T11:18:02;6.60;99.90
20831;DHT22;10576;53.556;9.868;2024-02-26T11:20:28;6.80;99.90
20831;DHT22;10576;53.556;9.868;2024-02-26T11:22:53;7.00;99.90
20831;DHT22;10576;53.556;9.868;2024-02-26T11:25:19;7.10;99.90
20831;DHT22;10576;53.556;9.868;2024-02-26T11:27:46;7.00;99.90
20831;DHT22;10576;53.556;9.868;2024-02-26T11:30:13;7.30;99.90
20831;DHT22;10576;53.556;9.868;2024-02-26T11:32:40;7.20;99.90
20831;DHT22;10576;53.556;9.868;2024-02-26T11:35:05;7.40;99.90
20831;DHT22;10576;53.556;9.868;2024-02-26T11:37:32;7.30;99.90
20831;DHT22;10576;53.556;9.868;2024-02-26T11:40:00;7.30;99.90
20831;DHT22;10576;53.556;9.868;2024-02-26T11:42:26;7.30;99.90
20831;DHT22;10576;53.556;9.868;2024-02-26T11:44:53;7.40;99.90
20831;DHT22;10576;53.556;9.868;2024-02-26T11:47:22;7.40;99.90
20831;DHT22;10576;53.556;9.868;2024-02-26T11:49:48;7.50;99.90
20831;DHT22;10576;53.556;9.868;2024-02-26T11:52:14;7.50;99.90
20831;DHT22;10576;53.556;9.868;2024-02-26T11:59:46;7.50;99.90
20831;DHT22;10576;53.556;9.868;2024-02-26T12:02:22;7.40;99.90
20831;DHT22;10576;53.556;9.868;2024-02-26T12:04:58;7.30;99.90
20831;DHT22;10576;53.556;9.868;2024-02-26T12:07:23;7.40;99.90
20831;DHT22;10576;53.556;9.868;2024-02-26T12:09:49;7.50;99.90
20831;DHT22;10576;53.556;9.868;2024-02-26T12:12:17;7.40;99.90
20831;DHT22;10576;53.556;9.868;2024-02-26T12:14:52;7.60;99.90
20831;DHT22;10576;53.556;9.868;2024-02-26T12:17:21;7.40;99.90
20831;DHT22;10576;53.556;9.868;2024-02-26T12:19:48;7.50;99.90
20831;DHT22;10576;53.556;9.868;2024-02-26T12:22:13;7.50;99.90
20831;DHT22;10576;53.556;9.868;2024-02-26T12:24:45;7.50;99.90
20831;DHT22;10576;53.556;9.868;2024-02-26T12:27:11;7.50;99.90
20831;DHT22;10576;53.556;9.868;2024-02-26T12:29:36;7.70;99.90
20831;DHT22;10576;53.556;9.868;2024-02-26T12:32:04;7.70;99.90
20831;DHT22;10576;53.556;9.868;2024-02-26T12:34:30;7.80;99.90
20831;DHT22;10576;53.556;9.868;2024-02-26T12:36:56;7.90;99.90
20831;DHT22;10576;53.556;9.868;2024-02-26T12:39:22;7.90;99.90
20831;DHT22;10576;53.556;9.868;2024-02-26T12:41:47;8.00;99.90
20831;DHT22;10576;53.556;9.868;2024-02-26T12:44:16;8.10;99.90
20831;DHT22;10576;53.556;9.868;2024-02-26T12:46:42;8.10;99.90
20831;DHT22;10576;53.556;9.868;2024-02-26T12:49:07;7.80;99.90
20831;DHT22;10576;53.556;9.868;2024-02-26T12:51:33;7.80;99.90
20831;DHT22;10576;53.556;9.868;2024-02-26T12:53:59;7.70;99.90
20831;DHT22;10576;53.556;9.868;2024-02-26T12:56:24;7.60;99.90
20831;DHT22;10576;53.556;9.868;2024-02-26T12:58:51;7.60;99.90
20831;DHT22;10576;53.556;9.868;2024-02-26T13:01:17;7.50;99.90
20831;DHT22;10576;53.556;9.868;2024-02-26T13:03:44;7.50;99.90
20831;DHT22;10576;53.556;9.868;2024-02-26T13:06:10;7.60;99.90
20831;DHT22;10576;53.556;9.868;2024-02-26T13:08:36;7.60;99.90
20831;DHT22;10576;53.556;9.868;2024-02-26T13:11:01;7.40;99.90
20831;DHT22;10576;53.556;9.868;2024-02-26T13:13:27;7.50;99.90
20831;DHT22;10576;53.556;9.868;2024-02-26T13:16:02;7.50;99.90
20831;DHT22;10576;53.556;9.868;2024-02-26T13:18:29;7.50;99.90
20831;DHT22;10576;53.556;9.868;2024-02-26T13:21:09;7.70;99.90
20831;DHT22;10576;53.556;9.868;2024-02-26T13:23:35;7.70;99.90
20831;DHT22;10576;53.556;9.868;2024-02-26T13:26:01;7.70;99.90
20831;DHT22;10576;53.556;9.868;2024-02-26T13:28:26;7.70;99.90
20831;DHT22;10576;53.556;9.868;2024-02-26T13:30:53;7.60;99.90
20831;DHT22;10576;53.556;9.868;2024-02-26T13:33:21;7.60;99.90
20831;DHT22;10576;53.556;9.868;2024-02-26T13:35:47;7.60;99.90
20831;DHT22;10576;53.556;9.868;2024-02-26T13:38:12;7.60;99.90
20831;DHT22;10576;53.556;9.868;2024-02-26T13:40:38;7.60;99.90
20831;DHT22;10576;53.556;9.868;2024-02-26T13:43:07;7.50;99.90
20831;DHT22;10576;53.556;9.868;2024-02-26T13:45:34;7.50;99.90
20831;DHT22;10576;53.556;9.868;2024-02-26T13:48:01;7.50;99.90
20831;DHT22;10576;53.556;9.868;2024-02-26T13:50:27;7.40;99.90
20831;DHT22;10576;53.556;9.868;2024-02-26T13:52:52;7.50;99.90
20831;DHT22;10576;53.556;9.868;2024-02-26T13:55:21;7.50;99.90
20831;DHT22;10576;53.556;9.868;2024-02-26T13:57:47;7.60;99.90
20831;DHT22;10576;53.556;9.868;2024-02-26T14:00:13;7.60;99.90
20831;DHT22;10576;53.556;9.868;2024-02-26T14:02:39;7.50;99.90
20831;DHT22;10576;53.556;9.868;2024-02-26T14:05:04;8.10;99.90
20831;DHT22;10576;53.556;9.868;2024-02-26T14:07:30;7.60;99.90
20831;DHT22;10576;53.556;9.868;2024-02-26T14:09:58;7.60;99.90
20831;DHT22;10576;53.556;9.868;2024-02-26T14:12:23;7.40;99.90
20831;DHT22;10576;53.556;9.868;2024-02-26T14:14:49;7.50;99.90
20831;DHT22;10576;53.556;9.868;2024-02-26T14:17:14;7.50;99.90
20831;DHT22;10576;53.556;9.868;2024-02-26T14:19:40;7.50;99.90
20831;DHT22;10576;53.556;9.868;2024-02-26T14:22:12;7.50;99.90
20831;DHT22;10576;53.556;9.868;2024-02-26T14:24:38;7.30;99.90
20831;DHT22;10576;53.556;9.868;2024-02-26T14:27:05;7.40;99.90
20831;DHT22;10576;53.556;9.868;2024-02-26T14:29:30;7.40;99.90
20831;DHT22;10576;53.556;9.868;2024-02-26T14:31:56;7.30;99.90
20831;DHT22;10576;53.556;9.868;2024-02-26T14:34:21;7.40;99.90
20831;DHT22;10576;53.556;9.868;2024-02-26T14:36:47;7.30;99.90
20831;DHT22;10576;53.556;9.868;2024-02-26T14:39:12;7.20;99.90
20831;DHT22;10576;53.556;9.868;2024-02-26T14:41:38;7.20;99.90
20831;DHT22;10576;53.556;9.868;2024-02-26T14:44:04;7.20;99.90
20831;DHT22;10576;53.556;9.868;2024-02-26T14:46:30;7.10;99.90
20831;DHT22;10576;53.556;9.868;2024-02-26T14:48:55;7.00;99.90
20831;DHT22;10576;53.556;9.868;2024-02-26T14:51:24;6.90;99.90
20831;DHT22;10576;53.556;9.868;2024-02-26T14:53:50;6.90;99.90
20831;DHT22;10576;53.556;9.868;2024-02-26T14:56:16;6.90;99.90
20831;DHT22;10576;53.556;9.868;2024-02-26T14:58:41;6.80;99.90
20831;DHT22;10576;53.556;9.868;2024-02-26T15:01:07;6.90;99.90
20831;DHT22;10576;53.556;9.868;2024-02-26T15:03:32;6.90;99.90
20831;DHT22;10576;53.556;9.868;2024-02-26T15:05:58;6.90;99.90
20831;DHT22;10576;53.556;9.868;2024-02-26T15:08:23;6.80;99.90
20831;DHT22;10576;53.556;9.868;2024-02-26T15:10:49;6.70;99.90
20831;DHT22;10576;53.556;9.868;2024-02-26T15:13:15;6.90;99.90
20831;DHT22;10576;53.556;9.868;2024-02-26T15:15:41;6.80;99.90
20831;DHT22;10576;53.556;9.868;2024-02-26T15:18:07;6.80;99.90
20831;DHT22;10576;53.556;9.868;2024-02-26T15:20:33;6.60;99.90
20831;DHT22;10576;53.556;9.868;2024-02-26T15:22:59;6.70;99.90
20831;DHT22;10576;53.556;9.868;2024-02-26T15:25:24;6.60;99.90
20831;DHT22;10576;53.556;9.868;2024-02-26T15:27:50;7.90;99.90
20831;DHT22;10576;53.556;9.868;2024-02-26T15:30:15;6.60;99.90
20831;DHT22;10576;53.556;9.868;2024-02-26T15:32:41;6.60;99.90
20831;DHT22;10576;53.556;9.868;2024-02-26T15:35:08;6.50;99.90
20831;DHT22;10576;53.556;9.868;2024-02-26T15:37:35;6.50;99.90
20831;DHT22;10576;53.556;9.868;2024-02-26T15:40:00;6.70;99.90
20831;DHT22;10576;53.556;9.868;2024-02-26T15:42:26;6.50;99.90
20831;DHT22;10576;53.556;9.868;2024-02-26T15:44:51;6.60;99.90